Stations météo

Publicité
Brocken, Allemagne (10453): Température de l'air & dewpoint: 15.06.2018 01:00:00 - 21.06.2018 01:00:00 (CEST)Brocken, Allemagne (10453): Température de l'air 5cm: 15.06.2018 01:00:00 - 21.06.2018 01:00:00 (CEST)Brocken, Allemagne (10453): Vitesse du vent & gusts: 15.06.2018 01:00:00 - 21.06.2018 01:00:00 (CEST)Brocken, Allemagne (10453): Direction du vent: 15.06.2018 01:00:00 - 21.06.2018 01:00:00 (CEST)Brocken, Allemagne (10453): visibility: 15.06.2018 01:00:00 - 21.06.2018 01:00:00 (CEST)Brocken, Allemagne (10453): Ensoleillement: 15.06.2018 01:00:00 - 21.06.2018 01:00:00 (CEST)
Date & Time tt [°C] td [°C] tt 5cm [°C] ff [km/h] ff [knt] fx [km/h] fx [knt] dd vv [km] sd [min]
21.06.2018 01:00:00 14,3 10,6 - 28 15 31 17 W 80 0
21.06.2018 00:00:00 14,6 10,4 11,7 27 15 33 18 W 80 0
20.06.2018 23:00:00 15,1 10,2 12,4 29 16 33 18 W 70 0
20.06.2018 22:00:00 15,3 10,5 12,4 27 14 30 16 W 70 13
20.06.2018 21:00:00 16,2 10,1 13,7 24 13 41 22 W 80 60
20.06.2018 20:00:00 16,9 9,1 15,6 30 16 45 24 WSW 70 60
20.06.2018 19:00:00 17,3 8,1 18,9 31 17 41 22 WSW 70 60
20.06.2018 18:00:00 17,2 11,1 20,8 27 15 39 21 WSW 70 57
20.06.2018 17:00:00 17,0 11,4 22,1 27 14 43 23 SW 60 54
20.06.2018 16:00:00 17,7 12,0 22,4 27 15 41 22 SSW 60 42
20.06.2018 15:00:00 15,7 11,6 18,7 27 15 40 21 SSW 65 24
20.06.2018 14:00:00 14,7 11,9 17,1 26 14 39 21 SSW 40 5
20.06.2018 13:00:00 13,5 11,3 15,5 29 16 40 22 SW 30 0
20.06.2018 12:00:00 12,8 11,3 16,3 31 17 38 20 SSW 25 2
20.06.2018 11:00:00 12,2 11,3 13,5 22 12 35 19 S 5 0
20.06.2018 10:00:00 11,5 11,1 12,8 24 13 32 17 SSW 8 0
20.06.2018 09:00:00 11,4 11,2 12,7 19 11 26 14 SSW - 0
20.06.2018 08:00:00 11,4 11,4 12,0 16 9 22 12 SSW - 0
20.06.2018 07:00:00 11,8 11,5 12,4 9 5 16 9 WSW - 14
20.06.2018 06:00:00 11,4 11,2 11,2 11 6 20 11 W 0,1 0
20.06.2018 05:00:00 11,4 11,3 11,2 17 9 23 12 WNW - 0
20.06.2018 04:00:00 11,3 11,1 11,0 20 11 26 14 WNW - 0
20.06.2018 03:00:00 11,4 11,2 11,4 21 11 30 16 W - 0
20.06.2018 02:00:00 11,4 11,2 11,3 24 13 33 18 W - 0
20.06.2018 01:00:00 11,7 11,5 11,7 28 15 34 18 W - 0
20.06.2018 00:00:00 11,6 11,4 11,5 27 15 36 19 W - 0
19.06.2018 23:00:00 11,5 11,3 11,2 24 13 36 19 W 0,2 0
19.06.2018 22:00:00 11,5 10,2 10,0 23 13 32 18 W 20 0
19.06.2018 21:00:00 12,2 11,2 11,7 18 10 26 14 W 25 0
19.06.2018 20:00:00 12,4 11,4 12,8 22 12 30 16 W 50 0
19.06.2018 19:00:00 12,5 11,3 12,9 23 12 32 17 W 40 0
19.06.2018 18:00:00 12,7 11,4 13,5 25 13 38 20 W 40 0
19.06.2018 17:00:00 12,3 11,5 13,7 25 14 41 22 W 30 0
19.06.2018 16:00:00 12,4 11,3 14,0 28 15 40 21 W 30 0
19.06.2018 15:00:00 12,9 10,9 13,7 27 15 40 22 W 40 1
19.06.2018 14:00:00 13,3 10,7 15,2 30 16 44 24 W 50 13
19.06.2018 13:00:00 13,8 10,8 17,9 36 19 52 28 W 50 29
19.06.2018 12:00:00 12,7 10,7 14,4 34 19 54 29 WSW 50 1
19.06.2018 11:00:00 11,3 10,1 12,7 39 21 52 28 WSW 30 11
19.06.2018 10:00:00 10,7 9,7 12,9 27 15 37 20 SW 40 0
19.06.2018 09:00:00 10,6 8,3 11,2 19 10 34 18 WSW 60 24
19.06.2018 08:00:00 9,8 8,5 11,0 27 15 49 27 WSW 30 48
19.06.2018 07:00:00 8,9 8,7 9,5 43 23 68 37 W - 3
19.06.2018 06:00:00 9,3 9,2 9,4 53 29 69 37 W - 0
19.06.2018 05:00:00 10,1 10,0 10,1 45 24 66 35 W - 0
19.06.2018 04:00:00 10,5 10,5 10,6 39 21 58 31 WSW - 0
19.06.2018 03:00:00 10,7 10,5 10,7 39 21 59 32 WSW - 0
19.06.2018 02:00:00 10,7 10,6 10,7 43 23 54 29 WSW - 0
19.06.2018 01:00:00 10,7 10,5 10,7 40 21 53 29 SW 40 0
19.06.2018 00:00:00 10,8 10,4 10,4 39 21 51 27 SW 40 0
18.06.2018 23:00:00 10,7 10,5 10,7 42 23 50 27 WSW - 0
18.06.2018 22:00:00 10,8 10,5 10,8 33 18 46 25 WSW 50 0
18.06.2018 21:00:00 11,8 9,7 11,8 35 19 42 23 WSW 82 0
18.06.2018 20:00:00 12,4 9,2 12,0 32 17 46 25 SW 82 28
18.06.2018 19:00:00 13,2 9,4 15,9 35 19 50 27 SW 82 50
18.06.2018 18:00:00 12,8 9,0 16,7 36 19 50 27 SW 60 46
18.06.2018 17:00:00 11,8 8,9 15,2 40 22 53 28 SW 60 24
18.06.2018 16:00:00 11,3 8,7 13,9 41 22 50 27 SW 60 4
18.06.2018 15:00:00 11,0 9,1 13,4 34 18 49 26 WSW 60 15
18.06.2018 14:00:00 9,6 8,8 13,8 36 19 47 26 SW 50 4
18.06.2018 13:00:00 9,5 8,6 13,1 36 20 51 28 SW 50 6
18.06.2018 12:00:00 9,5 8,1 13,2 33 18 44 24 SW 50 5
18.06.2018 11:00:00 9,2 6,5 12,2 32 17 48 26 SW 50 32
18.06.2018 10:00:00 8,0 6,7 10,2 34 18 41 22 SW 50 0
18.06.2018 09:00:00 7,6 6,5 9,7 34 18 40 22 SW 50 0
18.06.2018 08:00:00 8,0 5,6 9,2 24 13 35 19 WSW 50 0
18.06.2018 07:00:00 7,7 5,2 7,8 29 16 38 20 W 50 22
18.06.2018 06:00:00 6,4 5,2 5,6 33 18 41 22 W 40 0
18.06.2018 05:00:00 6,7 6,5 6,6 29 16 39 21 W 0,1 0
18.06.2018 04:00:00 6,9 6,4 6,8 28 15 36 20 W 60 0
18.06.2018 03:00:00 7,4 6,5 7,3 28 15 33 18 W 60 0
18.06.2018 02:00:00 8,0 6,7 7,7 29 16 46 25 WSW 60 0
18.06.2018 01:00:00 8,5 6,6 8,1 35 19 41 22 W 60 0
18.06.2018 00:00:00 8,8 6,2 8,3 29 16 34 18 W 60 0
17.06.2018 23:00:00 8,9 6,7 8,0 23 13 31 17 W 60 0
17.06.2018 22:00:00 9,4 6,7 8,0 18 10 23 12 W 60 0
17.06.2018 21:00:00 10,6 7,0 9,9 15 8 26 14 W 80 0
17.06.2018 20:00:00 11,0 6,5 11,0 15 8 29 16 W 82 0
17.06.2018 19:00:00 11,4 6,3 11,4 23 12 35 19 W 82 0
17.06.2018 18:00:00 12,3 5,9 12,6 28 15 42 23 W 82 11
17.06.2018 17:00:00 12,6 5,7 13,1 29 15 48 26 W 82 20
17.06.2018 16:00:00 13,6 7,0 18,4 28 15 47 26 W 82 28
17.06.2018 15:00:00 12,4 5,7 13,6 40 22 53 29 WSW 82 39
17.06.2018 14:00:00 12,1 5,6 14,6 40 22 57 31 WSW 82 29
17.06.2018 13:00:00 11,9 6,9 13,7 35 19 52 28 WSW 82 28
17.06.2018 12:00:00 11,7 7,3 15,8 34 19 44 24 WSW 82 30
17.06.2018 11:00:00 10,3 6,6 13,5 38 20 53 29 SW 70 35
17.06.2018 10:00:00 9,2 8,3 11,2 28 15 45 25 WSW 15 4
17.06.2018 09:00:00 9,6 8,7 10,0 30 16 48 26 W - 5
17.06.2018 08:00:00 9,9 9,5 10,9 40 22 50 27 W - 1
17.06.2018 07:00:00 9,9 9,6 10,4 33 18 43 23 W 0,1 22
17.06.2018 06:00:00 9,7 9,3 9,4 36 19 44 24 W 0,3 0
17.06.2018 05:00:00 10,5 10,0 10,2 35 19 48 26 W 0,3 0
17.06.2018 04:00:00 11,3 9,8 10,5 42 23 53 28 WSW 50 0
17.06.2018 03:00:00 12,2 9,3 11,0 49 26 58 32 SW 80 0
17.06.2018 02:00:00 13,3 8,7 11,2 39 21 45 24 SSW 80 0
17.06.2018 01:00:00 13,9 8,4 12,3 34 19 43 23 SSW 80 0
17.06.2018 00:00:00 13,9 8,3 12,6 35 19 41 22 SW 82 0
16.06.2018 23:00:00 14,2 7,4 12,9 35 19 40 22 SSW 82 0
16.06.2018 22:00:00 14,4 7,1 11,4 23 12 26 14 SSW 80 3
16.06.2018 21:00:00 14,8 6,8 12,1 22 12 27 15 SW 82 44
16.06.2018 20:00:00 15,1 6,5 14,5 21 12 36 20 SW 82 46
16.06.2018 19:00:00 15,4 6,9 15,7 23 13 31 17 SW 82 35
16.06.2018 18:00:00 15,7 6,9 17,8 23 12 34 18 SSW 82 16
16.06.2018 17:00:00 16,0 6,3 17,6 21 12 36 19 S 82 16
16.06.2018 16:00:00 15,5 6,4 18,8 23 12 41 22 SW 82 31
16.06.2018 15:00:00 14,9 6,9 18,3 28 15 40 22 SW 82 16
16.06.2018 14:00:00 15,6 7,0 18,4 22 12 37 20 SSW 82 27
16.06.2018 13:00:00 14,6 7,1 17,6 17 9 35 19 SSW 82 22
16.06.2018 12:00:00 13,2 6,5 13,3 24 13 32 18 SSW 70 1
16.06.2018 11:00:00 14,9 6,6 18,7 22 12 28 15 SSW 70 50
16.06.2018 10:00:00 12,8 8,7 14,7 17 9 24 13 S 80 14
16.06.2018 09:00:00 12,3 8,4 13,2 10 6 19 10 SSW 80 0
16.06.2018 08:00:00 11,4 8,4 11,7 11 6 18 10 S 70 0
16.06.2018 07:00:00 11,0 8,4 10,5 12 7 16 9 SSW 50 0
16.06.2018 06:00:00 10,9 8,4 9,9 15 8 21 11 SSW 40 0
16.06.2018 05:00:00 10,9 8,7 9,7 16 9 21 11 SSW 50 0
16.06.2018 04:00:00 11,3 8,4 9,9 17 9 21 11 SSW 60 0
16.06.2018 03:00:00 11,2 9,1 9,9 17 9 21 11 S 50 0
16.06.2018 02:00:00 11,2 9,2 9,6 15 8 19 10 S 60 0
16.06.2018 01:00:00 10,9 9,3 9,6 14 7 17 9 S 70 0
16.06.2018 00:00:00 10,9 9,7 10,1 13 7 17 9 S 80 0
15.06.2018 23:00:00 11,0 9,4 10,2 16 8 17 9 S 70 0
15.06.2018 22:00:00 10,8 9,6 10,0 15 8 19 11 SSE 40 0
15.06.2018 21:00:00 11,2 9,3 10,9 16 9 19 10 S 40 11
15.06.2018 20:00:00 11,2 9,2 10,7 10 5 14 8 SE 60 7
15.06.2018 19:00:00 11,8 9,9 12,4 8 4 10 6 ENE 80 0
15.06.2018 18:00:00 11,1 10,3 12,3 9 5 16 8 NE 60 0
15.06.2018 17:00:00 13,1 10,2 14,6 8 5 16 9 NNE 70 12
15.06.2018 16:00:00 13,7 8,3 14,6 12 7 19 11 WNW 60 9
15.06.2018 15:00:00 12,9 9,2 14,8 9 5 18 10 WSW 40 10
15.06.2018 14:00:00 12,5 9,0 13,8 12 6 20 11 WNW 30 3
15.06.2018 13:00:00 10,8 8,9 13,9 16 9 21 11 NNW 25 0
15.06.2018 12:00:00 9,4 9,0 11,9 15 8 23 12 NNW 0,1 0
15.06.2018 11:00:00 9,4 8,9 11,3 9 5 13 7 N 0,1 0
15.06.2018 10:00:00 9,7 9,2 11,1 7 4 11 6 N 0,1 0
15.06.2018 09:00:00 9,6 9,1 11,2 6 4 11 6 N 0,1 0
15.06.2018 08:00:00 9,5 9,2 10,6 9 5 15 8 NW - 0
15.06.2018 07:00:00 8,5 8,2 8,8 11 6 26 14 W 0,1 0
15.06.2018 06:00:00 8,5 8,3 8,7 22 12 33 18 W - 0
15.06.2018 05:00:00 8,2 7,9 8,1 28 15 45 24 W 0,1 0
15.06.2018 04:00:00 8,1 7,8 8,1 35 19 43 23 W 0,1 0
15.06.2018 03:00:00 7,8 7,3 7,7 35 19 42 23 W 10 0
15.06.2018 02:00:00 7,8 7,1 7,6 31 17 37 20 W 30 0
15.06.2018 01:00:00 8,2 7,4 7,9 26 14 34 18 W 25 0

tt = Température de l'air
td = dewpoint
tt 5cm = Température de l'air 5cm
ff = Vitesse du vent
fx = gusts
dd = Direction du vent
vv = visibility
sd = Ensoleillement

stations d'obs. à proximité